createdAt,value
2022-11-01T00:00:41.049Z,11.64
2022-11-01T00:02:41.130Z,11.64
2022-11-01T00:04:41.074Z,11.61
2022-11-01T00:06:41.102Z,11.6
2022-11-01T00:09:39.512Z,11.58
2022-11-01T00:11:39.556Z,11.61
2022-11-01T00:13:39.524Z,11.6
2022-11-01T00:15:39.532Z,11.55
2022-11-01T00:17:39.533Z,11.54
2022-11-01T00:19:39.511Z,11.36
2022-11-01T00:21:39.534Z,11.4
2022-11-01T00:25:07.315Z,11.35
2022-11-01T00:27:07.349Z,11.35
2022-11-01T00:29:07.327Z,11.33
2022-11-01T00:31:08.883Z,11.31
2022-11-01T00:33:07.338Z,11.21
2022-11-01T00:35:07.311Z,11.05
2022-11-01T00:37:07.367Z,11.01
2022-11-01T00:40:29.542Z,11.2
2022-11-01T00:42:29.489Z,11.21
2022-11-01T00:44:29.483Z,11.2
2022-11-01T00:46:29.522Z,11.14
2022-11-01T00:48:29.491Z,11.07
2022-11-01T00:50:29.517Z,10.96
2022-11-01T00:52:29.555Z,10.97
2022-11-01T00:55:02.860Z,10.92
2022-11-01T00:57:02.865Z,10.91
2022-11-01T00:59:02.849Z,10.84
2022-11-01T01:01:02.955Z,10.89
2022-11-01T01:03:03.171Z,10.89
2022-11-01T01:05:02.876Z,10.86
2022-11-01T01:07:02.837Z,10.74
2022-11-01T01:09:02.855Z,10.78
2022-11-01T01:10:08.670Z,10.78
2022-11-01T01:12:08.681Z,10.76
2022-11-01T01:14:08.628Z,10.76
2022-11-01T01:16:08.634Z,10.71
2022-11-01T01:18:08.687Z,10.75
2022-11-01T01:20:08.883Z,10.7
2022-11-01T01:22:08.674Z,10.7
2022-11-01T01:24:08.632Z,10.68
2022-11-01T01:25:14.425Z,10.67
2022-11-01T01:27:14.462Z,10.69
2022-11-01T01:29:14.435Z,10.62
2022-11-01T01:31:14.449Z,10.65
2022-11-01T01:33:14.416Z,10.61
2022-11-01T01:35:14.412Z,10.58
2022-11-01T01:37:14.433Z,10.52
2022-11-01T01:39:14.444Z,10.51
2022-11-01T01:40:36.458Z,10.5
2022-11-01T01:42:36.486Z,10.42
2022-11-01T01:44:36.455Z,10.44
2022-11-01T01:46:36.442Z,10.35
2022-11-01T01:48:36.452Z,10.31
2022-11-01T01:50:36.439Z,10.37
2022-11-01T01:52:36.497Z,10.4
2022-11-01T01:55:37.284Z,10.38
2022-11-01T01:57:37.272Z,10.36
2022-11-01T01:59:37.252Z,10.28
2022-11-01T02:01:37.385Z,10.25
2022-11-01T02:03:37.256Z,10.26
2022-11-01T02:05:37.239Z,10.25
2022-11-01T02:07:37.246Z,10.12
2022-11-01T02:09:37.249Z,10.12
2022-11-01T02:11:08.579Z,10.07
2022-11-01T02:13:08.571Z,10.06
2022-11-01T02:15:08.544Z,10.02
2022-11-01T02:17:08.803Z,9.9
2022-11-01T02:19:08.595Z,9.85
2022-11-01T02:21:08.544Z,9.84
2022-11-01T02:23:08.536Z,9.9
2022-11-01T02:26:22.499Z,9.99
2022-11-01T02:28:22.431Z,9.97
2022-11-01T02:30:22.455Z,9.96
2022-11-01T02:32:22.445Z,9.95
2022-11-01T02:34:22.423Z,9.91
2022-11-01T02:36:22.444Z,9.87
2022-11-01T02:38:22.435Z,9.79
2022-11-01T02:41:11.537Z,9.81
2022-11-01T02:43:11.497Z,9.77
2022-11-01T02:45:11.465Z,9.72
2022-11-01T02:47:11.485Z,9.68
2022-11-01T02:49:11.655Z,9.62
2022-11-01T02:51:11.584Z,9.62
2022-11-01T02:53:11.470Z,9.59
2022-11-01T02:56:34.607Z,9.58
2022-11-01T02:58:34.591Z,9.54
2022-11-01T03:00:34.583Z,9.52
2022-11-01T03:02:34.606Z,9.4
2022-11-01T03:04:34.596Z,9.47
2022-11-01T03:06:34.568Z,9.46
2022-11-01T03:08:34.557Z,9.45
2022-11-01T03:11:51.769Z,9.44
2022-11-01T03:13:51.784Z,9.45
2022-11-01T03:15:51.721Z,9.45
2022-11-01T03:17:51.710Z,9.44
2022-11-01T03:19:51.762Z,9.44
2022-11-01T03:21:51.734Z,9.4
2022-11-01T03:23:51.709Z,9.41
2022-11-01T03:27:04.805Z,9.37
2022-11-01T03:29:04.786Z,9.32
2022-11-01T03:31:04.767Z,9.31
2022-11-01T03:33:05.103Z,9.3
2022-11-01T03:35:04.750Z,9.29
2022-11-01T03:37:04.795Z,9.22
2022-11-01T03:39:04.751Z,9.23
2022-11-01T03:42:22.915Z,9.25
2022-11-01T03:44:22.975Z,9.24
2022-11-01T03:46:22.890Z,9.25
2022-11-01T03:48:22.899Z,9.25
2022-11-01T03:50:22.891Z,9.24
2022-11-01T03:52:22.911Z,9.21
2022-11-01T03:54:22.892Z,9.2
2022-11-01T03:57:10.118Z,9.18
2022-11-01T03:59:10.078Z,9.14
2022-11-01T04:01:10.309Z,9.17
2022-11-01T04:03:10.081Z,9.18
2022-11-01T04:05:10.122Z,9.12
2022-11-01T04:07:10.077Z,9.17
2022-11-01T04:09:10.088Z,9.14
2022-11-01T04:12:46.941Z,9.16
2022-11-01T04:14:46.981Z,9.08
2022-11-01T04:16:46.955Z,9.1
2022-11-01T04:18:46.956Z,9.13
2022-11-01T04:20:46.932Z,9.08
2022-11-01T04:22:46.942Z,9.04
2022-11-01T04:24:46.952Z,9.01
2022-11-01T04:27:55.270Z,8.98
2022-11-01T04:29:55.290Z,8.98
2022-11-01T04:31:55.329Z,8.92
2022-11-01T04:33:55.441Z,8.96
2022-11-01T04:35:55.313Z,8.86
2022-11-01T04:37:55.267Z,8.89
2022-11-01T04:39:55.310Z,8.85
2022-11-01T04:42:33.447Z,8.76
2022-11-01T04:44:33.427Z,8.73
2022-11-01T04:46:33.446Z,8.71
2022-11-01T04:48:33.438Z,8.64
2022-11-01T04:50:33.402Z,8.65
2022-11-01T04:52:33.392Z,8.65
2022-11-01T04:54:33.456Z,8.65
2022-11-01T04:58:24.464Z,8.67
2022-11-01T05:00:24.450Z,8.65
2022-11-01T05:02:24.408Z,8.63
2022-11-01T05:04:24.455Z,8.63
2022-11-01T05:06:24.473Z,8.66
2022-11-01T05:08:24.415Z,8.72
2022-11-01T05:10:24.417Z,8.74
2022-11-01T05:13:15.480Z,8.82
2022-11-01T05:15:15.477Z,8.89
2022-11-01T05:17:15.481Z,8.91
2022-11-01T05:19:15.472Z,8.93
2022-11-01T05:21:15.576Z,8.97
2022-11-01T05:23:15.468Z,8.93
2022-11-01T05:25:15.631Z,9
2022-11-01T05:28:51.368Z,9.11
2022-11-01T05:30:51.305Z,9.13
2022-11-01T05:32:51.229Z,9.25
2022-11-01T05:34:51.225Z,9.27
2022-11-01T05:36:51.258Z,9.3
2022-11-01T05:38:51.263Z,9.32
2022-11-01T05:40:51.237Z,9.28
2022-11-01T05:43:26.838Z,9.26
2022-11-01T05:45:26.842Z,9.24
2022-11-01T05:47:26.881Z,9.24
2022-11-01T05:49:26.833Z,9.28
2022-11-01T05:51:26.900Z,9.33
2022-11-01T05:53:26.827Z,9.25
2022-11-01T05:55:26.797Z,9.21
2022-11-01T05:58:44.925Z,9.33
2022-11-01T06:00:44.895Z,9.48
2022-11-01T06:02:44.986Z,9.62
2022-11-01T06:04:44.949Z,9.55
2022-11-01T06:06:44.883Z,9.28
2022-11-01T06:08:44.917Z,9.28
2022-11-01T06:10:44.911Z,9.43
2022-11-01T06:13:31.554Z,9.69
2022-11-01T06:15:33.043Z,9.75
2022-11-01T06:17:31.533Z,9.64
2022-11-01T06:19:31.529Z,9.43
2022-11-01T06:21:31.652Z,9.46
2022-11-01T06:23:31.502Z,9.54
2022-11-01T06:25:31.518Z,9.48
2022-11-01T06:29:10.107Z,9.51
2022-11-01T06:31:10.115Z,9.73
2022-11-01T06:33:10.108Z,9.83
2022-11-01T06:35:10.359Z,9.91
2022-11-01T06:37:10.098Z,9.87
2022-11-01T06:39:10.105Z,9.98
2022-11-01T06:41:10.132Z,10.17
2022-11-01T06:44:36.698Z,10.52
2022-11-01T06:46:36.704Z,10.57
2022-11-01T06:48:36.747Z,10.64
2022-11-01T06:50:36.702Z,10.62
2022-11-01T06:52:36.722Z,10.64
2022-11-01T06:54:36.714Z,10.65
2022-11-01T06:56:36.724Z,10.85
2022-11-01T06:59:15.477Z,11.02
2022-11-01T07:01:15.577Z,11.05
2022-11-01T07:03:15.459Z,10.88
2022-11-01T07:05:15.458Z,10.95
2022-11-01T07:07:15.485Z,10.8
2022-11-01T07:09:15.463Z,10.95
2022-11-01T07:11:15.461Z,10.79
2022-11-01T07:14:34.545Z,11.01
2022-11-01T07:16:34.543Z,11.12
2022-11-01T07:18:34.534Z,11.14
2022-11-01T07:20:34.674Z,11.37
2022-11-01T07:22:34.585Z,11.23
2022-11-01T07:24:34.518Z,11.6
2022-11-01T07:26:34.576Z,11.56
2022-11-01T07:29:20.510Z,11.64
2022-11-01T07:31:20.501Z,11.83
2022-11-01T07:33:20.499Z,11.72
2022-11-01T07:35:20.491Z,11.8
2022-11-01T07:37:20.555Z,11.81
2022-11-01T07:39:20.481Z,12.36
2022-11-01T07:41:20.531Z,12.53
2022-11-01T07:43:20.536Z,12.39
2022-11-01T07:44:45.473Z,12.66
2022-11-01T07:46:45.497Z,12.73
2022-11-01T07:48:45.653Z,12.85
2022-11-01T07:50:45.467Z,12.84
2022-11-01T07:52:45.474Z,12.81
2022-11-01T07:54:45.522Z,13.06
2022-11-01T07:56:45.477Z,13.16
2022-11-01T07:59:37.183Z,13.49
2022-11-01T08:01:37.245Z,13.67
2022-11-01T08:03:37.169Z,13.6
2022-11-01T08:05:37.092Z,13.82
2022-11-01T08:07:37.097Z,14.05
2022-11-01T08:09:37.085Z,13.94
2022-11-01T08:11:37.097Z,13.87
2022-11-01T08:13:37.080Z,14.08
2022-11-01T08:15:32.192Z,14.42
2022-11-01T08:17:32.226Z,14.68
2022-11-01T08:19:32.185Z,14.63
2022-11-01T08:21:32.251Z,15.08
2022-11-01T08:23:32.274Z,14.94
2022-11-01T08:25:32.187Z,15.11
2022-11-01T08:27:32.935Z,15.12
2022-11-01T08:30:21.144Z,15.27
2022-11-01T08:32:21.109Z,15.15
2022-11-01T08:34:21.101Z,15.34
2022-11-01T08:36:21.152Z,15.48
2022-11-01T08:38:21.101Z,15.67
2022-11-01T08:40:21.140Z,16.19
2022-11-01T08:42:21.100Z,16.4
2022-11-01T08:45:50.710Z,16.28
2022-11-01T08:47:50.678Z,16.16
2022-11-01T08:49:50.706Z,16.57
2022-11-01T08:51:50.679Z,16.62
2022-11-01T08:53:50.720Z,16.67
2022-11-01T08:55:50.656Z,17.12
2022-11-01T08:57:50.653Z,17.3
2022-11-01T09:01:03.024Z,16.45
2022-11-01T09:03:02.960Z,16.78
2022-11-01T09:05:03.064Z,17.19
2022-11-01T09:07:02.980Z,17.56
2022-11-01T09:09:02.982Z,17.33
2022-11-01T09:11:02.960Z,17.48
2022-11-01T09:13:03.248Z,17.77
2022-11-01T09:15:51.807Z,17.84
2022-11-01T09:17:51.799Z,18
2022-11-01T09:19:51.861Z,18.1
2022-11-01T09:21:51.812Z,18.54
2022-11-01T09:23:51.882Z,18.64
2022-11-01T09:25:51.810Z,18.54
2022-11-01T09:27:51.842Z,18.84
2022-11-01T09:31:21.841Z,18.55
2022-11-01T09:33:21.220Z,18.76
2022-11-01T09:35:21.153Z,19.05
2022-11-01T09:37:21.155Z,19.21
2022-11-01T09:39:21.218Z,19.22
2022-11-01T09:41:21.146Z,19.52
2022-11-01T09:43:21.168Z,19.22
2022-11-01T09:46:03.128Z,19.35
2022-11-01T09:48:03.452Z,19.58
2022-11-01T09:50:03.117Z,19.46
2022-11-01T09:52:03.133Z,19.52
2022-11-01T09:54:03.137Z,19.78
2022-11-01T09:56:03.142Z,20.12
2022-11-01T09:58:03.444Z,19.61
2022-11-01T10:01:54.588Z,19.87
2022-11-01T10:03:54.488Z,20.07
2022-11-01T10:05:54.486Z,20.35
2022-11-01T10:07:54.493Z,20.72
2022-11-01T10:09:54.480Z,20.52
2022-11-01T10:11:54.508Z,20.12
2022-11-01T10:13:54.523Z,20.45
2022-11-01T10:16:15.530Z,20.68
2022-11-01T10:18:15.557Z,21.11
2022-11-01T10:20:15.574Z,21.33
2022-11-01T10:22:15.631Z,21.2
2022-11-01T10:24:15.584Z,21.27
2022-11-01T10:26:15.543Z,21.14
2022-11-01T10:28:15.561Z,21.13
2022-11-01T10:30:15.579Z,21.59
2022-11-01T10:31:56.275Z,21.59
2022-11-01T10:33:56.247Z,21.73
2022-11-01T10:35:56.254Z,21.39
2022-11-01T10:38:04.032Z,21.35
2022-11-01T10:39:58.784Z,21.65
2022-11-01T10:41:56.233Z,22.16
2022-11-01T10:43:56.265Z,22.21
2022-11-01T10:47:02.319Z,22.29
2022-11-01T10:49:02.315Z,22.06
2022-11-01T10:51:02.318Z,21.87
2022-11-01T10:53:02.331Z,21.96
2022-11-01T10:55:02.343Z,22.28
2022-11-01T10:57:02.292Z,22.41
2022-11-01T10:59:02.320Z,22.42
2022-11-01T11:02:07.696Z,22.57
2022-11-01T11:04:07.524Z,22.65
2022-11-01T11:06:07.528Z,22.7
2022-11-01T11:08:07.574Z,22.75
2022-11-01T11:10:07.525Z,22.89
2022-11-01T11:12:07.529Z,22.89
2022-11-01T11:14:07.540Z,23.19
2022-11-01T11:16:52.752Z,23.3
2022-11-01T11:18:52.730Z,23.57
2022-11-01T11:20:52.775Z,23.54
2022-11-01T11:22:52.713Z,23.32
2022-11-01T11:24:52.719Z,23.24
2022-11-01T11:26:53.180Z,23.12
2022-11-01T11:28:52.718Z,23.21
2022-11-01T11:30:52.743Z,23.03
2022-11-01T11:32:37.403Z,23.31
2022-11-01T11:34:37.441Z,23.21
2022-11-01T11:36:37.423Z,23.14
2022-11-01T11:38:37.396Z,23.48
2022-11-01T11:40:37.396Z,23.75
2022-11-01T11:42:37.389Z,23.62
2022-11-01T11:44:37.444Z,23.46
2022-11-01T11:47:05.951Z,23.39
2022-11-01T11:49:05.975Z,23.54
2022-11-01T11:51:05.938Z,23.5
2022-11-01T11:53:05.931Z,23.91
2022-11-01T11:55:05.928Z,23.65
2022-11-01T11:57:05.923Z,23.66
2022-11-01T11:59:08.458Z,23.46
2022-11-01T12:01:06.048Z,23.55
2022-11-01T12:02:42.380Z,23.73
2022-11-01T12:04:42.317Z,23.78
2022-11-01T12:06:42.380Z,24.03
2022-11-01T12:08:42.345Z,24.06
2022-11-01T12:10:42.343Z,24.13
2022-11-01T12:12:42.295Z,24.21
2022-11-01T12:14:42.314Z,23.63
2022-11-01T12:17:28.280Z,23.87
2022-11-01T12:19:28.633Z,23.8
2022-11-01T12:21:28.310Z,23.69
2022-11-01T12:23:28.324Z,23.91
2022-11-01T12:25:28.271Z,24.14
2022-11-01T12:27:28.281Z,24.12
2022-11-01T12:29:28.307Z,24.21
2022-11-01T12:31:31.337Z,24.32
2022-11-01T12:32:59.031Z,24.35
2022-11-01T12:34:59.054Z,24.38
2022-11-01T12:36:59.037Z,24.24
2022-11-01T12:38:59.025Z,24.17
2022-11-01T12:41:01.658Z,24.17
2022-11-01T12:42:59.042Z,24.04
2022-11-01T12:44:59.036Z,24.25
2022-11-01T12:48:42.690Z,24.4
2022-11-01T12:50:42.726Z,24.52
2022-11-01T12:52:42.683Z,24.55
2022-11-01T12:54:42.689Z,24.65
2022-11-01T12:56:42.696Z,24.65
2022-11-01T12:58:42.730Z,24.59
2022-11-01T13:00:42.680Z,24.56
2022-11-01T13:03:05.322Z,24.34
2022-11-01T13:05:05.045Z,24.33
2022-11-01T13:07:05.045Z,24.3
2022-11-01T13:09:05.072Z,24.35
2022-11-01T13:11:05.008Z,24.43
2022-11-01T13:13:05.366Z,24.48
2022-11-01T13:15:05.019Z,24.54
2022-11-01T13:17:05.036Z,24.51
2022-11-01T13:19:03.332Z,24.44
2022-11-01T13:21:03.308Z,24.37
2022-11-01T13:23:03.731Z,24.3
2022-11-01T13:25:03.285Z,24.21
2022-11-01T13:27:03.516Z,24.24
2022-11-01T13:29:03.411Z,24.17
2022-11-01T13:31:03.296Z,24.08
2022-11-01T13:33:49.441Z,23.88
2022-11-01T13:35:49.325Z,23.87
2022-11-01T13:37:49.279Z,23.81
2022-11-01T13:39:49.346Z,23.7
2022-11-01T13:41:49.331Z,23.55
2022-11-01T13:43:49.294Z,23.41
2022-11-01T13:45:49.297Z,23.34
2022-11-01T13:49:20.531Z,23.08
2022-11-01T13:51:20.587Z,23
2022-11-01T13:53:20.523Z,22.91
2022-11-01T13:55:20.580Z,22.83
2022-11-01T13:57:22.805Z,22.75
2022-11-01T13:59:20.538Z,22.64
2022-11-01T14:01:20.612Z,22.58
2022-11-01T14:04:30.853Z,22.39
2022-11-01T14:06:30.777Z,22.26
2022-11-01T14:08:30.792Z,22.13
2022-11-01T14:10:30.898Z,22.02
2022-11-01T14:12:30.739Z,21.95
2022-11-01T14:14:30.781Z,21.86
2022-11-01T14:16:30.789Z,21.76
2022-11-01T14:19:17.683Z,21.63
2022-11-01T14:21:13.482Z,21.54
2022-11-01T14:23:13.519Z,21.43
2022-11-01T14:25:13.587Z,21.32
2022-11-01T14:27:13.505Z,21.2
2022-11-01T14:29:13.489Z,21.11
2022-11-01T14:31:13.522Z,20.98
2022-11-01T14:34:52.963Z,20.9
2022-11-01T14:36:52.985Z,20.8
2022-11-01T14:38:52.952Z,20.63
2022-11-01T14:40:52.942Z,20.62
2022-11-01T14:42:52.961Z,20.52
2022-11-01T14:44:52.948Z,20.45
2022-11-01T14:46:52.945Z,20.26
2022-11-01T14:50:08.070Z,20.08
2022-11-01T14:52:07.997Z,20
2022-11-01T14:54:10.563Z,19.89
2022-11-01T14:56:07.991Z,19.8
2022-11-01T14:58:08.006Z,19.69
2022-11-01T15:00:08.020Z,19.63
2022-11-01T15:02:08.106Z,19.56
2022-11-01T15:04:18.673Z,19.4
2022-11-01T15:06:18.655Z,19.37
2022-11-01T15:08:18.664Z,19.28
2022-11-01T15:10:18.653Z,19.22
2022-11-01T15:12:18.662Z,19.08
2022-11-01T15:14:18.686Z,19.06
2022-11-01T15:16:18.707Z,18.96
2022-11-01T15:18:18.642Z,18.86
2022-11-01T15:20:07.439Z,18.78
2022-11-01T15:22:07.420Z,18.72
2022-11-01T15:24:07.384Z,18.62
2022-11-01T15:26:07.399Z,18.55
2022-11-01T15:28:07.382Z,18.48
2022-11-01T15:30:07.404Z,18.38
2022-11-01T15:32:07.383Z,18.36
2022-11-01T15:35:10.273Z,18.36
2022-11-01T15:37:10.314Z,18.28
2022-11-01T15:39:10.268Z,18.2
2022-11-01T15:41:10.327Z,18.1
2022-11-01T15:43:10.292Z,18.08
2022-11-01T15:45:10.294Z,18.04
2022-11-01T15:47:10.356Z,17.94
2022-11-01T15:50:16.687Z,17.81
2022-11-01T15:52:16.718Z,17.72
2022-11-01T15:54:16.738Z,17.65
2022-11-01T15:56:16.703Z,17.59
2022-11-01T15:58:16.669Z,17.51
2022-11-01T16:00:16.753Z,17.5
2022-11-01T16:02:16.862Z,17.47
2022-11-01T16:05:12.753Z,17.4
2022-11-01T16:07:12.690Z,17.35
2022-11-01T16:09:12.773Z,17.35
2022-11-01T16:11:12.700Z,17.29
2022-11-01T16:13:12.816Z,17.19
2022-11-01T16:15:12.668Z,17.15
2022-11-01T16:17:12.817Z,17.16
2022-11-01T16:20:15.101Z,17.16
2022-11-01T16:22:15.165Z,17.1
2022-11-01T16:24:15.189Z,17.1
2022-11-01T16:26:15.138Z,17.01
2022-11-01T16:28:15.101Z,17.01
2022-11-01T16:30:15.086Z,17.05
2022-11-01T16:32:15.147Z,17.02
2022-11-01T16:34:15.090Z,16.94
2022-11-01T16:35:32.877Z,16.95
2022-11-01T16:37:32.939Z,16.96
2022-11-01T16:39:32.892Z,16.89
2022-11-01T16:41:35.025Z,16.85
2022-11-01T16:43:33.153Z,16.81
2022-11-01T16:45:33.044Z,16.73
2022-11-01T16:47:33.040Z,16.72
2022-11-01T16:50:32.679Z,16.64
2022-11-01T16:52:32.696Z,16.59
2022-11-01T16:54:32.668Z,16.54
2022-11-01T16:56:37.243Z,16.56
2022-11-01T16:58:32.618Z,16.57
2022-11-01T17:00:32.652Z,16.52
2022-11-01T17:02:33.026Z,16.48
2022-11-01T17:04:32.821Z,16.37
2022-11-01T17:06:15.166Z,16.44
2022-11-01T17:08:15.170Z,16.33
2022-11-01T17:10:15.127Z,16.31
2022-11-01T17:12:15.347Z,16.35
2022-11-01T17:14:15.195Z,16.32
2022-11-01T17:16:15.203Z,16.25
2022-11-01T17:18:15.148Z,16.22
2022-11-01T17:21:09.205Z,16.21
2022-11-01T17:23:09.221Z,16.16
2022-11-01T17:25:09.250Z,16.17
2022-11-01T17:27:09.327Z,16.2
2022-11-01T17:29:09.370Z,16.17
2022-11-01T17:31:09.282Z,16.1
2022-11-01T17:33:09.475Z,16.01
2022-11-01T17:36:40.568Z,15.87
2022-11-01T17:38:40.578Z,15.81
2022-11-01T17:40:40.518Z,15.82
2022-11-01T17:42:40.698Z,15.84
2022-11-01T17:44:40.750Z,15.84
2022-11-01T17:46:40.538Z,15.84
2022-11-01T17:48:40.506Z,15.78
2022-11-01T17:51:57.402Z,15.69
2022-11-01T17:53:57.432Z,15.61
2022-11-01T17:55:57.423Z,15.57
2022-11-01T17:57:57.368Z,15.63
2022-11-01T17:59:57.423Z,15.59
2022-11-01T18:01:57.445Z,15.61
2022-11-01T18:03:57.812Z,15.56
2022-11-01T18:06:35.419Z,15.46
2022-11-01T18:08:35.401Z,15.41
2022-11-01T18:10:35.483Z,15.43
2022-11-01T18:12:35.394Z,15.39
2022-11-01T18:14:35.424Z,15.48
2022-11-01T18:16:35.425Z,15.34
2022-11-01T18:18:35.387Z,15.35
2022-11-01T18:21:38.272Z,15.27
2022-11-01T18:23:38.236Z,15.26
2022-11-01T18:25:38.310Z,15.16
2022-11-01T18:27:38.389Z,15.11
2022-11-01T18:29:40.193Z,14.95
2022-11-01T18:31:38.329Z,14.91
2022-11-01T18:33:38.447Z,15
2022-11-01T18:37:04.001Z,14.91
2022-11-01T18:39:03.972Z,14.9
2022-11-01T18:41:04.851Z,14.9
2022-11-01T18:43:04.254Z,14.78
2022-11-01T18:45:03.981Z,14.72
2022-11-01T18:47:03.924Z,14.76
2022-11-01T18:49:04.000Z,14.74
2022-11-01T18:51:56.783Z,14.68
2022-11-01T18:53:56.831Z,14.73
2022-11-01T18:55:56.784Z,14.7
2022-11-01T18:57:56.787Z,14.63
2022-11-01T18:59:56.882Z,14.53
2022-11-01T19:01:56.855Z,14.51
2022-11-01T19:03:56.786Z,14.62
2022-11-01T19:07:50.677Z,14.4
2022-11-01T19:09:34.697Z,14.38
2022-11-01T19:11:34.755Z,14.44
2022-11-01T19:13:34.718Z,14.38
2022-11-01T19:15:34.739Z,14.4
2022-11-01T19:17:34.736Z,14.35
2022-11-01T19:19:34.772Z,14.2
2022-11-01T19:23:01.386Z,14.2
2022-11-01T19:25:01.424Z,14.19
2022-11-01T19:27:01.401Z,14.1
2022-11-01T19:29:01.379Z,14.1
2022-11-01T19:31:01.421Z,14.13
2022-11-01T19:33:01.404Z,14.12
2022-11-01T19:35:01.441Z,14.04
2022-11-01T19:37:52.337Z,14.02
2022-11-01T19:39:52.253Z,13.98
2022-11-01T19:41:52.334Z,13.93
2022-11-01T19:43:52.287Z,13.95
2022-11-01T19:45:52.268Z,13.98
2022-11-01T19:47:52.327Z,13.96
2022-11-01T19:49:52.295Z,13.93
2022-11-01T19:53:16.506Z,13.86
2022-11-01T19:55:16.439Z,13.87
2022-11-01T19:57:16.494Z,13.79
2022-11-01T19:59:16.429Z,13.71
2022-11-01T20:01:16.638Z,13.49
2022-11-01T20:03:16.649Z,13.57
2022-11-01T20:05:16.453Z,13.7
2022-11-01T20:07:38.871Z,13.71
2022-11-01T20:09:38.933Z,13.6
2022-11-01T20:11:38.880Z,13.5
2022-11-01T20:13:38.871Z,13.53
2022-11-01T20:15:38.927Z,13.65
2022-11-01T20:17:38.903Z,13.47
2022-11-01T20:19:38.907Z,13.39
2022-11-01T20:21:38.860Z,13.39
2022-11-01T20:23:00.323Z,13.28
2022-11-01T20:24:54.724Z,13.26
2022-11-01T20:26:54.694Z,13.34
2022-11-01T20:28:54.696Z,13.3
2022-11-01T20:30:54.730Z,13.32
2022-11-01T20:32:54.706Z,13.24
2022-11-01T20:34:54.725Z,13.25
2022-11-01T20:37:22.525Z,13.21
2022-11-01T20:38:43.937Z,13.18
2022-11-01T20:40:43.912Z,13.17
2022-11-01T20:42:43.901Z,13.1
2022-11-01T20:44:44.027Z,13.12
2022-11-01T20:46:43.897Z,13.12
2022-11-01T20:48:43.889Z,13.14
2022-11-01T20:50:43.963Z,13.09
2022-11-01T20:54:03.019Z,13.07
2022-11-01T20:56:03.028Z,12.99
2022-11-01T20:58:03.264Z,12.97
2022-11-01T21:00:02.992Z,12.91
2022-11-01T21:02:03.072Z,12.85
2022-11-01T21:04:02.995Z,12.89
2022-11-01T21:06:03.079Z,12.84
2022-11-01T21:09:31.126Z,12.82
2022-11-01T21:11:31.105Z,12.71
2022-11-01T21:13:31.113Z,12.63
2022-11-01T21:15:31.112Z,12.66
2022-11-01T21:17:31.111Z,12.62
2022-11-01T21:19:31.108Z,12.58
2022-11-01T21:21:31.123Z,12.59
2022-11-01T21:24:16.503Z,12.6
2022-11-01T21:26:16.507Z,12.6
2022-11-01T21:28:16.597Z,12.56
2022-11-01T21:30:16.509Z,12.6
2022-11-01T21:32:16.506Z,12.63
2022-11-01T21:34:16.565Z,12.62
2022-11-01T21:36:16.547Z,12.59
2022-11-01T21:39:35.643Z,12.49
2022-11-01T21:41:35.621Z,12.5
2022-11-01T21:43:35.565Z,12.52
2022-11-01T21:45:35.507Z,12.5
2022-11-01T21:47:35.512Z,12.45
2022-11-01T21:49:35.536Z,12.41
2022-11-01T21:51:35.499Z,12.38
2022-11-01T21:54:50.544Z,12.3
2022-11-01T21:56:50.512Z,12.26
2022-11-01T21:58:50.521Z,12.2
2022-11-01T22:00:50.533Z,12.2
2022-11-01T22:02:50.515Z,12.22
2022-11-01T22:04:50.613Z,12.28
2022-11-01T22:06:50.516Z,12.24
2022-11-01T22:09:49.493Z,12.03
2022-11-01T22:11:49.485Z,12.01
2022-11-01T22:13:49.454Z,12
2022-11-01T22:15:49.694Z,11.92
2022-11-01T22:17:49.488Z,11.92
2022-11-01T22:19:49.464Z,11.93
2022-11-01T22:21:49.465Z,11.9
2022-11-01T22:25:19.069Z,11.86
2022-11-01T22:27:19.039Z,11.92
2022-11-01T22:29:19.014Z,11.88
2022-11-01T22:31:19.012Z,11.9
2022-11-01T22:33:19.021Z,11.93
2022-11-01T22:35:19.003Z,11.85
2022-11-01T22:37:19.008Z,11.83
2022-11-01T22:40:11.464Z,11.75
2022-11-01T22:42:11.462Z,11.69
2022-11-01T22:44:11.483Z,11.67
2022-11-01T22:46:11.456Z,11.57
2022-11-01T22:48:11.495Z,11.67
2022-11-01T22:50:11.500Z,11.63
2022-11-01T22:52:11.466Z,11.59
2022-11-01T22:55:38.824Z,11.63
2022-11-01T22:57:38.854Z,11.58
2022-11-01T22:59:38.844Z,11.5
2022-11-01T23:01:38.903Z,11.59
2022-11-01T23:03:38.821Z,11.56
2022-11-01T23:05:38.855Z,11.53
2022-11-01T23:07:38.811Z,11.53
2022-11-01T23:09:57.224Z,11.44
2022-11-01T23:11:57.226Z,11.5
2022-11-01T23:13:57.252Z,11.42
2022-11-01T23:15:57.227Z,11.37
2022-11-01T23:17:57.260Z,11.32
2022-11-01T23:19:57.217Z,11.31
2022-11-01T23:21:57.249Z,11.33
2022-11-01T23:23:57.192Z,11.33
2022-11-01T23:25:58.822Z,11.35
2022-11-01T23:27:58.870Z,11.35
2022-11-01T23:29:58.834Z,11.31
2022-11-01T23:31:58.857Z,11.28
2022-11-01T23:33:58.828Z,11.14
2022-11-01T23:35:58.821Z,11.14
2022-11-01T23:37:58.921Z,11.11
2022-11-01T23:41:10.836Z,10.98
2022-11-01T23:43:10.822Z,10.84
2022-11-01T23:45:10.824Z,10.88
2022-11-01T23:47:10.851Z,10.92
2022-11-01T23:49:10.819Z,10.99
2022-11-01T23:51:10.828Z,10.98
2022-11-01T23:53:10.816Z,10.95
2022-11-01T23:56:21.737Z,10.92
2022-11-01T23:58:21.731Z,10.82
